createdAt,value
2019-04-06T08:18:45.372Z,46.46
2019-04-06T08:19:45.456Z,46.47
2019-04-06T08:20:45.191Z,46.97
2019-04-06T08:21:45.522Z,47.16
2019-04-06T08:22:45.177Z,47.06
2019-04-06T08:23:45.470Z,47.21
2019-04-06T08:24:45.201Z,47.46
2019-04-06T08:25:45.210Z,47.50
2019-04-06T08:26:46.294Z,48.24
2019-04-06T08:27:45.228Z,47.83
2019-04-06T08:28:45.168Z,46.78
2019-04-06T08:29:45.175Z,47.32
2019-04-06T08:30:46.663Z,46.57
2019-04-06T08:31:45.225Z,47.04
2019-04-06T08:32:45.410Z,47.20
2019-04-06T08:33:45.218Z,47.19
2019-04-06T08:34:45.217Z,46.77
2019-04-06T08:35:46.279Z,46.44
2019-04-06T08:36:46.053Z,46.78
2019-04-06T08:37:46.471Z,46.61
2019-04-06T08:38:46.147Z,46.67
2019-04-06T08:39:46.623Z,46.49
2019-04-06T08:40:46.137Z,46.89
2019-04-06T08:41:46.102Z,46.69
2019-04-06T08:42:46.444Z,45.60
2019-04-06T08:43:46.375Z,45.61
2019-04-06T08:44:46.773Z,46.24
2019-04-06T08:45:46.445Z,46.18
2019-04-06T08:46:46.647Z,46.38
2019-04-06T08:47:46.479Z,46.41
2019-04-06T08:48:46.139Z,46.26
2019-04-06T08:49:46.336Z,45.69
2019-04-06T08:50:46.036Z,45.86
2019-04-06T08:51:46.202Z,46.44
2019-04-06T08:52:46.056Z,46.21
2019-04-06T08:53:46.443Z,46.25
2019-04-06T08:54:46.425Z,45.98
2019-04-06T08:55:46.391Z,46.64
2019-04-06T08:56:46.142Z,46.73
2019-04-06T08:59:24.285Z,46.33
2019-04-06T09:00:24.484Z,46.18
2019-04-06T09:01:24.226Z,45.66
2019-04-06T09:02:24.246Z,44.83
2019-04-06T09:03:24.105Z,45.45
2019-04-06T09:04:24.119Z,45.63
2019-04-06T09:05:24.159Z,44.70
2019-04-06T09:06:24.255Z,44.14
2019-04-06T09:07:24.138Z,44.39
2019-04-06T09:08:24.096Z,44.75
2019-04-06T09:09:24.275Z,44.21
2019-04-06T09:10:24.099Z,44.49
2019-04-06T09:11:24.174Z,43.96
2019-04-06T09:12:24.118Z,46.21
2019-04-06T09:13:24.310Z,45.02
2019-04-06T09:14:24.126Z,44.04
2019-04-06T09:15:24.269Z,44.13
2019-04-06T09:16:24.614Z,44.38
2019-04-06T09:17:24.217Z,44.86
2019-04-06T09:18:24.170Z,43.31
2019-04-06T09:19:24.122Z,43.67
2019-04-06T09:20:24.175Z,44.12
2019-04-06T09:21:24.577Z,42.48
2019-04-06T09:22:24.160Z,42.22
2019-04-06T09:23:24.160Z,41.78
2019-04-06T09:24:24.128Z,41.95
2019-04-06T09:25:24.172Z,41.37
2019-04-06T09:26:24.427Z,41.45
2019-04-06T09:27:24.053Z,41.80
2019-04-06T09:28:24.588Z,42.23
2019-04-06T09:29:24.870Z,42.21
2019-04-06T09:30:26.976Z,42.01
2019-04-06T09:31:24.119Z,42.01
2019-04-06T09:32:24.337Z,42.47
2019-04-06T09:33:24.519Z,42.61
2019-04-06T09:34:24.378Z,42.70
2019-04-06T09:35:24.569Z,42.70
2019-04-06T09:36:24.465Z,43.24
2019-04-06T09:37:24.213Z,44.26
2019-04-06T09:38:24.460Z,43.52
2019-04-06T09:39:24.162Z,42.96
2019-04-06T09:40:24.139Z,43.08
2019-04-06T09:41:26.144Z,43.38
2019-04-06T09:42:24.456Z,43.69
2019-04-06T09:43:24.408Z,44.13
2019-04-06T09:44:24.257Z,43.59
2019-04-06T09:45:24.174Z,43.95
2019-04-06T09:46:24.475Z,43.61
2019-04-06T09:47:24.268Z,42.96
2019-04-06T09:48:24.181Z,42.73
2019-04-06T09:49:24.186Z,42.75
2019-04-06T09:50:24.250Z,42.11
2019-04-06T09:51:24.559Z,43.15
2019-04-06T09:52:24.188Z,43.27
2019-04-06T09:53:24.232Z,43.04
2019-04-06T09:54:24.578Z,41.80
2019-04-06T09:55:24.450Z,42.00
2019-04-06T09:56:24.409Z,43.31
2019-04-06T09:57:24.123Z,42.67
2019-04-06T09:58:24.681Z,43.13
2019-04-06T09:59:34.677Z,43.46
2019-04-06T10:00:24.367Z,41.55
2019-04-06T10:01:24.528Z,42.39
2019-04-06T10:02:24.645Z,42.34
2019-04-06T10:03:24.529Z,43.62
2019-04-06T10:04:24.298Z,43.23
2019-04-06T10:05:24.319Z,43.38
2019-04-06T10:06:24.312Z,43.61
2019-04-06T10:07:24.267Z,43.27
2019-04-06T10:08:24.201Z,43.32
2019-04-06T10:09:24.876Z,43.36
2019-04-06T10:10:24.241Z,43.44
2019-04-06T10:11:24.747Z,42.70
2019-04-06T10:12:24.632Z,42.18
2019-04-06T10:13:24.470Z,41.60
2019-04-06T10:14:24.476Z,41.48
2019-04-06T10:15:24.223Z,41.53
2019-04-06T10:16:24.242Z,40.64
2019-04-06T10:17:24.284Z,41.03
2019-04-06T10:18:24.519Z,40.88
2019-04-06T10:19:24.495Z,39.95
2019-04-06T10:20:24.206Z,39.90
2019-04-06T10:21:24.235Z,40.21
2019-04-06T10:22:24.278Z,39.39
2019-04-06T10:23:24.251Z,39.44
2019-04-06T10:24:24.210Z,39.35
2019-04-06T10:25:24.513Z,39.37
2019-04-06T10:26:24.503Z,39.32
2019-04-06T10:27:24.567Z,39.38
2019-04-06T10:28:24.441Z,39.56
2019-04-06T10:29:24.407Z,39.22
2019-04-06T10:30:24.150Z,39.49
2019-04-06T10:31:24.431Z,39.52
2019-04-06T10:32:24.132Z,39.62
2019-04-06T10:33:24.148Z,39.76
2019-04-06T10:34:24.564Z,39.62
2019-04-06T10:35:24.265Z,40.12
2019-04-06T10:36:24.648Z,40.27
2019-04-06T10:37:24.572Z,40.52
2019-04-06T10:38:24.359Z,40.70
2019-04-06T10:39:24.380Z,40.66
2019-04-06T10:40:24.688Z,40.78
2019-04-06T10:41:24.298Z,40.76
2019-04-06T10:42:24.328Z,40.80
2019-04-06T10:43:24.291Z,41.08
2019-04-06T10:44:24.392Z,41.01
2019-04-06T10:45:24.260Z,41.13
2019-04-06T10:46:24.567Z,41.18
2019-04-06T10:47:24.335Z,41.25
2019-04-06T10:48:24.629Z,41.24
2019-04-06T10:49:25.827Z,41.47
2019-04-06T10:50:24.642Z,40.76
2019-04-06T10:51:24.300Z,41.16
2019-04-06T10:52:24.246Z,41.62
2019-04-06T10:53:24.344Z,42.00
2019-04-06T10:54:24.637Z,42.02
2019-04-06T10:55:24.562Z,41.97
2019-04-06T10:56:24.493Z,41.91
2019-04-06T10:57:24.598Z,41.95
2019-04-06T10:58:24.367Z,42.20
2019-04-06T10:59:24.355Z,42.04
2019-04-06T11:00:24.403Z,42.28
2019-04-06T11:01:24.895Z,42.34
2019-04-06T11:02:24.505Z,42.40
2019-04-06T11:03:24.626Z,42.37
2019-04-06T11:04:24.557Z,42.70
2019-04-06T11:05:24.469Z,43.00
2019-04-06T11:06:24.172Z,42.90
2019-04-06T11:07:24.333Z,43.06
2019-04-06T11:08:24.554Z,43.18
2019-04-06T11:09:24.623Z,42.97
2019-04-06T11:10:24.381Z,43.16
2019-04-06T11:11:24.610Z,42.89
2019-04-06T11:12:24.338Z,43.50
2019-04-06T11:13:24.583Z,43.79
2019-04-06T11:14:24.275Z,43.82
2019-04-06T11:15:24.677Z,44.32
2019-04-06T11:16:24.546Z,44.59
2019-04-06T11:17:24.359Z,43.49
2019-04-06T11:18:24.330Z,43.05
2019-04-06T11:19:24.644Z,43.08
2019-04-06T11:20:24.643Z,42.87
2019-04-06T11:21:24.413Z,42.01
2019-04-06T11:22:24.623Z,40.98
2019-04-06T11:23:24.556Z,41.04
2019-04-06T11:24:25.008Z,40.80
2019-04-06T11:25:24.391Z,40.58
2019-04-06T11:26:24.421Z,40.39
2019-04-06T11:27:24.657Z,40.33
2019-04-06T11:28:24.864Z,40.67
2019-04-06T11:29:24.607Z,40.47
2019-04-06T11:30:24.644Z,40.70
2019-04-06T11:31:24.759Z,40.44
2019-04-06T11:32:24.715Z,40.59
2019-04-06T11:33:24.452Z,40.33
2019-04-06T11:34:24.534Z,40.41
2019-04-06T11:35:24.848Z,40.25
2019-04-06T11:36:25.076Z,40.43
2019-04-06T11:37:24.754Z,40.12
2019-04-06T11:38:24.618Z,40.21
2019-04-06T11:39:24.511Z,40.11
2019-04-06T11:40:24.391Z,40.18
2019-04-06T11:41:24.808Z,40.26
2019-04-06T11:42:24.853Z,40.25
2019-04-06T11:43:24.809Z,40.02
2019-04-06T11:44:24.531Z,40.07
2019-04-06T11:45:24.775Z,40.33
2019-04-06T11:46:24.526Z,40.35
2019-04-06T11:47:24.572Z,40.06
2019-04-06T11:48:25.038Z,40.28
2019-04-06T11:49:24.545Z,40.56
2019-04-06T11:50:24.740Z,40.51
2019-04-06T11:51:24.686Z,40.03
2019-04-06T11:52:24.627Z,40.42
2019-04-06T11:53:25.144Z,40.81
2019-04-06T11:54:26.034Z,40.86
2019-04-06T11:55:25.518Z,40.93
2019-04-06T11:56:25.373Z,40.13
2019-04-06T11:57:24.859Z,40.41
2019-04-06T11:58:24.756Z,40.42
2019-04-06T11:59:24.971Z,40.19
2019-04-06T12:00:27.214Z,40.15
2019-04-06T12:01:25.031Z,39.97
2019-04-06T12:02:25.156Z,40.50
2019-04-06T12:03:24.802Z,40.35
2019-04-06T12:04:25.336Z,40.58
2019-04-06T12:05:24.975Z,40.76
2019-04-06T12:06:24.752Z,41.19
2019-04-06T12:07:25.099Z,41.27
2019-04-06T12:08:24.986Z,41.05
2019-04-06T12:09:25.070Z,40.01
2019-04-06T12:10:25.066Z,40.81
2019-04-06T12:11:24.761Z,40.90
2019-04-06T12:34:33.242Z,33.25
2019-04-06T12:35:33.236Z,35.35
2019-04-06T12:36:33.292Z,34.63
2019-04-06T12:37:33.256Z,35.55
2019-04-06T12:38:33.382Z,34.87
2019-04-06T12:39:33.260Z,33.78
2019-04-06T12:40:33.649Z,34.09
2019-04-06T12:41:33.337Z,34.42
2019-04-06T12:42:33.314Z,34.11
2019-04-06T12:43:33.693Z,31.43
2019-04-06T12:44:33.388Z,30.20
2019-04-06T12:45:33.732Z,29.98
2019-04-06T12:46:33.567Z,30.17
2019-04-06T12:47:33.392Z,29.78
2019-04-06T12:48:33.547Z,29.62
2019-04-06T12:49:33.686Z,29.45
2019-04-06T12:50:33.787Z,29.47
2019-04-06T12:51:33.851Z,29.57
2019-04-06T12:52:34.146Z,29.70
2019-04-06T12:53:35.051Z,30.20
2019-04-06T12:54:34.176Z,29.61
2019-04-06T12:55:33.801Z,29.58
2019-04-06T12:56:33.446Z,29.82
2019-04-06T12:57:33.781Z,29.46
2019-04-06T12:58:33.935Z,29.34
2019-04-06T12:59:35.967Z,30.11
2019-04-06T13:00:33.803Z,29.22
2019-04-06T13:01:33.831Z,29.07
2019-04-06T13:02:33.784Z,28.79
2019-04-06T13:03:33.789Z,28.62
2019-04-06T13:04:33.807Z,28.33
2019-04-06T13:05:33.589Z,28.66
2019-04-06T13:06:33.621Z,28.34
2019-04-06T13:07:34.788Z,28.36
2019-04-06T13:08:33.713Z,28.65
2019-04-06T13:09:33.897Z,29.56
2019-04-06T13:10:33.674Z,28.37
2019-04-06T13:11:33.538Z,28.99
2019-04-06T13:12:33.527Z,27.77
2019-04-06T13:13:33.591Z,27.85
2019-04-06T13:14:33.534Z,28.41
2019-04-06T13:15:34.177Z,28.35
2019-04-06T13:16:33.597Z,29.10
2019-04-06T13:17:33.833Z,29.26
2019-04-06T13:18:33.754Z,29.45
2019-04-06T13:19:33.551Z,28.67
2019-04-06T13:20:33.742Z,29.53
2019-04-06T13:21:33.814Z,30.21
2019-04-06T13:22:33.774Z,30.06
2019-04-06T13:23:34.149Z,30.34
2019-04-06T13:24:33.644Z,32.93
2019-04-06T13:25:33.935Z,27.72
2019-04-06T13:26:33.885Z,26.21
2019-04-06T13:27:33.534Z,31.18
2019-04-06T13:28:33.565Z,33.68
2019-04-06T13:29:33.938Z,35.45
2019-04-06T13:30:33.570Z,36.78
2019-04-06T13:31:33.889Z,36.86
2019-04-06T13:32:33.631Z,37.70
2019-04-06T13:33:33.674Z,36.76
2019-04-06T13:34:33.559Z,36.57
2019-04-06T13:35:33.593Z,36.28
2019-04-06T13:36:33.794Z,36.73
2019-04-06T13:37:33.488Z,36.55
2019-04-06T13:38:36.898Z,29.91
2019-04-06T14:12:36.334Z,39.79
2019-04-06T14:13:36.334Z,41.33
2019-04-06T14:14:36.285Z,42.13
2019-04-06T14:15:37.017Z,41.41
2019-04-06T14:16:36.259Z,39.32
2019-04-06T14:17:36.235Z,41.51
2019-04-06T14:18:36.599Z,41.51
2019-04-06T14:19:36.216Z,45.08
2019-04-06T14:20:36.144Z,42.08
2019-04-06T14:21:36.346Z,44.01
2019-04-06T14:22:36.315Z,43.07
2019-04-06T14:23:36.481Z,45.81
2019-04-06T14:24:36.269Z,44.35
2019-04-06T14:25:36.654Z,44.00
2019-04-06T14:26:36.263Z,42.42
2019-04-06T14:27:36.250Z,39.54
2019-04-06T14:28:36.871Z,37.86
2019-04-06T14:29:36.346Z,40.38
2019-04-06T14:30:36.933Z,41.65
2019-04-06T14:31:36.246Z,42.17
2019-04-06T14:32:36.467Z,40.57
2019-04-06T14:33:36.309Z,41.27
2019-04-06T14:34:36.292Z,41.30
2019-04-06T14:35:36.413Z,41.76
2019-04-06T14:36:36.370Z,41.71
2019-04-06T14:37:36.833Z,41.66
2019-04-06T14:38:36.536Z,41.32
2019-04-06T14:39:37.814Z,43.31
2019-04-06T14:40:36.887Z,39.45
2019-04-06T14:41:36.377Z,42.44
2019-04-06T14:42:36.337Z,41.37
2019-04-06T14:43:36.523Z,38.87
2019-04-06T14:44:36.496Z,39.27
2019-04-06T14:45:37.830Z,40.77
2019-04-06T14:46:36.563Z,45.07
2019-04-06T14:47:37.187Z,41.22
2019-04-06T14:48:36.395Z,44.07
2019-04-06T14:49:36.763Z,43.27
2019-04-06T14:50:36.388Z,40.74
2019-04-06T14:51:36.467Z,42.93
2019-04-06T14:52:36.443Z,41.82
2019-04-06T14:53:36.336Z,42.24
2019-04-06T14:54:36.556Z,39.92
2019-04-06T14:55:39.285Z,33.56
2019-04-06T14:56:36.500Z,34.92
2019-04-06T14:57:36.440Z,36.85
2019-04-06T14:58:36.469Z,38.74
2019-04-06T14:59:36.676Z,41.35
2019-04-06T15:00:36.438Z,41.13
2019-04-06T15:01:45.415Z,43.11
2019-04-06T15:02:40.943Z,41.69
2019-04-06T15:03:36.715Z,41.59
2019-04-06T15:04:36.803Z,42.51
2019-04-06T15:05:36.651Z,42.36
2019-04-06T15:06:36.615Z,47.56
2019-04-06T15:07:36.933Z,39.81
2019-04-06T15:08:37.674Z,39.19
2019-04-06T15:21:02.492Z,42.72
2019-04-06T15:22:02.545Z,42.93
2019-04-06T15:23:02.853Z,46.33
2019-04-06T15:24:02.908Z,43.36
2019-04-06T15:25:02.911Z,49.90
2019-04-06T15:26:02.536Z,45.42
2019-04-06T15:27:02.491Z,45.83
2019-04-06T15:28:02.876Z,43.15
2019-04-06T15:29:04.036Z,40.27
2019-04-06T15:30:02.393Z,42.61
2019-04-06T15:31:02.565Z,48.62
2019-04-06T15:32:02.981Z,43.36
2019-04-06T15:33:02.374Z,45.00
2019-04-06T15:34:10.976Z,47.27
2019-04-06T15:35:02.978Z,45.93
2019-04-06T15:36:02.724Z,47.12
2019-04-06T15:37:02.496Z,45.78
2019-04-06T15:38:02.960Z,41.60
2019-04-06T15:39:02.318Z,46.45
2019-04-06T15:40:02.249Z,47.64
2019-04-06T15:41:02.910Z,43.81
2019-04-06T15:42:02.829Z,47.24
2019-04-06T15:43:02.351Z,44.72
2019-04-06T15:44:02.855Z,47.17
2019-04-06T15:45:02.886Z,47.61
2019-04-06T15:46:02.781Z,46.08
2019-04-06T15:47:02.916Z,46.77
2019-04-06T15:48:02.538Z,48.46
2019-04-06T15:49:03.039Z,46.12
2019-04-06T15:50:08.129Z,45.04
2019-04-06T15:51:02.294Z,48.38
2019-04-06T15:52:10.591Z,45.87
2019-04-06T15:53:02.824Z,44.74
2019-04-06T15:54:02.461Z,46.51
2019-04-06T15:55:02.524Z,46.67
2019-04-06T15:56:02.520Z,48.09
2019-04-06T15:57:04.162Z,49.22
2019-04-06T15:58:03.499Z,48.66
2019-04-06T15:59:09.889Z,47.19
2019-04-06T16:00:06.669Z,47.18
2019-04-06T16:01:02.846Z,48.35
2019-04-06T16:02:03.716Z,46.71
2019-04-06T16:03:03.458Z,45.73
2019-04-06T16:04:02.731Z,49.07
2019-04-06T16:05:03.022Z,45.77
2019-04-06T16:06:03.794Z,46.34
2019-04-06T16:07:05.088Z,47.34
2019-04-06T16:08:05.382Z,45.04
2019-04-06T16:09:07.009Z,45.98
2019-04-06T16:10:04.929Z,48.24
2019-04-06T16:11:03.371Z,47.24
2019-04-06T16:12:03.464Z,46.76
2019-04-06T16:13:09.185Z,43.32
2019-04-06T16:14:08.597Z,44.82
2019-04-06T16:15:07.648Z,46.33
2019-04-06T16:16:05.725Z,46.54
2019-04-06T16:17:05.536Z,46.45
2019-04-06T16:18:06.549Z,43.37
2019-04-06T16:19:11.885Z,45.31
2019-04-06T16:20:03.948Z,46.60
2019-04-06T16:21:05.165Z,45.49
2019-04-06T16:22:10.772Z,45.65
2019-04-06T16:23:03.081Z,47.41
2019-04-06T16:24:04.646Z,47.85
2019-04-06T16:25:11.919Z,47.32
2019-04-06T16:26:10.487Z,46.34
2019-04-06T16:27:03.487Z,47.02
2019-04-06T16:28:07.551Z,47.28
2019-04-06T16:29:05.192Z,48.66
2019-04-06T16:30:02.990Z,47.48
2019-04-06T16:31:08.916Z,49.08
2019-04-06T16:32:11.530Z,48.48
2019-04-06T16:33:03.197Z,48.61
2019-04-06T16:34:03.378Z,49.74
2019-04-06T16:35:07.777Z,48.72
2019-04-06T16:36:09.699Z,49.50
2019-04-06T16:37:02.577Z,49.58
2019-04-06T16:38:04.691Z,47.28
2019-04-06T16:39:03.757Z,48.98
2019-04-06T16:40:02.785Z,47.95
2019-04-06T16:41:02.924Z,47.29
2019-04-06T16:42:08.817Z,50.20
2019-04-06T16:43:02.954Z,48.37
2019-04-06T16:44:02.608Z,48.60
2019-04-06T16:45:13.803Z,49.22
2019-04-06T16:46:03.414Z,49.90
2019-04-06T16:47:02.959Z,49.86
2019-04-06T16:48:05.825Z,49.88
2019-04-06T16:49:03.893Z,50.06
2019-04-06T16:50:04.103Z,50.67
2019-04-06T16:51:03.291Z,48.85
2019-04-06T16:52:03.368Z,49.41
2019-04-06T16:53:09.296Z,50.24
2019-04-06T16:54:13.409Z,49.17
2019-04-06T16:55:04.251Z,50.94
2019-04-06T16:56:07.870Z,47.48
2019-04-06T16:59:18.868Z,49.47
2019-04-06T17:00:25.724Z,47.96
2019-04-06T17:01:14.765Z,49.38
2019-04-06T17:02:23.576Z,49.24
2019-04-06T17:03:14.222Z,50.18
2019-04-06T17:04:11.594Z,50.27
2019-04-06T17:07:17.031Z,48.63
2019-04-06T17:08:15.964Z,49.29
2019-04-06T17:09:18.118Z,47.97
2019-04-06T17:10:16.126Z,48.70
2019-04-06T17:11:16.133Z,47.22
2019-04-06T17:12:27.913Z,47.08
2019-04-06T17:13:19.993Z,46.93
2019-04-06T17:14:16.300Z,48.93
2019-04-06T17:15:16.545Z,47.53
2019-04-06T17:16:18.370Z,49.34
2019-04-06T17:17:17.568Z,47.87
2019-04-06T17:20:34.467Z,49.41
2019-04-06T17:22:49.422Z,48.68
2019-04-06T17:23:34.060Z,47.68
2019-04-06T17:56:27.461Z,53.23
2019-04-06T17:57:27.332Z,52.11
2019-04-06T17:58:27.731Z,51.03
2019-04-06T17:59:28.010Z,51.29
2019-04-06T18:00:29.217Z,55.42
2019-04-06T18:01:31.939Z,53.02
